Arcen, Netherlands
Current Conditions -  °F | °C
As of 2:20 PM on Thursday 30 Oct 2014 (Local Time) from EDLV Reporting Station
Broken Clouds Broken Clouds  
Wind Chill: 61°   Ceiling: 700
Heat Index: 61°   Visibility: 4mi
Dew Point: 61°   Wind: 7mph
Humidity: 100%   Direction: 160°SSE
Pressure: 30.18"   Gusts: NA
Location:  51.48°N, 6.18°E
Report Text: EDLV 301320Z 16006KT 130V190 7000 BKN007 16/16 Q1022
Loading
Personal Weather Stations






























Interactive Weather Map
Tropical Storm Tracking
New forecast layout! Learn more

10-Day Weather Forecast

Advertisements
Track Severe Weather on mobile